Time;durP1;ratioP1;P1;durP2;ratioP2;P2;SDS_P1;SDS_P2;PMS_P1;PMS_P2;Temp;Humidity;BMP_temperature;BMP_pressure;BME280_temperature;BME280_humidity;BME280_pressure;Samples;Min_cycle;Max_cycle;Signal;HPM_P1;HPM_P2
2022/05/24 00:00:04;;;;;;;1.15;0.98;;;14.50;58.90;;;;;;5049956;28;20206;-61
2022/05/24 00:02:34;;;;;;;0.95;0.73;;;14.50;58.80;;;;;;5049993;28;20599;-61
2022/05/24 00:05:05;;;;;;;1.00;0.85;;;14.60;58.80;;;;;;5049683;28;20561;-62
2022/05/24 00:07:36;;;;;;;1.23;0.90;;;14.60;58.80;;;;;;5047974;28;20277;-61
2022/05/24 00:10:07;;;;;;;1.02;0.90;;;14.60;59.10;;;;;;5048459;28;20655;-60
2022/05/24 00:12:40;;;;;;;2.42;1.08;;;14.70;59.30;;;;;;5049745;28;20615;-61
2022/05/24 00:18:01;;;;;;;1.92;0.90;;;14.70;59.70;;;;;;5046190;28;20201;-60
2022/05/24 00:20:34;;;;;;;1.83;1.00;;;14.80;59.70;;;;;;5049433;28;20207;-60
2022/05/24 00:23:04;;;;;;;1.75;1.20;;;14.80;59.60;;;;;;5048647;28;20261;-60
2022/05/24 00:25:39;;;;;;;1.25;0.68;;;14.80;59.50;;;;;;5048971;28;20613;-61
2022/05/24 00:28:12;;;;;;;2.53;0.90;;;14.90;59.40;;;;;;5048673;28;20592;-61
2022/05/24 00:30:43;;;;;;;0.80;0.73;;;14.90;59.30;;;;;;5048747;28;20227;-60
2022/05/24 00:33:14;;;;;;;1.73;0.93;;;15.00;59.20;;;;;;5048608;28;20219;-60
2022/05/24 00:35:45;;;;;;;1.58;0.70;;;15.10;59.20;;;;;;5048480;28;20223;-60
2022/05/24 00:38:22;;;;;;;2.05;1.02;;;15.10;59.00;;;;;;5048594;28;20257;-60
2022/05/24 00:41:02;;;;;;;1.58;0.95;;;15.10;58.90;;;;;;5049143;28;20191;-61
2022/05/24 00:43:38;;;;;;;1.10;0.90;;;15.20;58.90;;;;;;5048922;28;20218;-61
2022/05/24 00:46:12;;;;;;;1.73;0.85;;;15.20;58.70;;;;;;5049666;28;20218;-60
2022/05/24 00:48:51;;;;;;;2.22;0.98;;;15.30;58.60;;;;;;5049186;28;20267;-60
2022/05/24 00:51:30;;;;;;;1.23;0.70;;;15.30;58.40;;;;;;5048692;28;20191;-60
2022/05/24 00:54:00;;;;;;;2.05;1.00;;;15.40;58.40;;;;;;5045179;28;20219;-61
2022/05/24 00:56:55;;;;;;;1.30;0.88;;;15.40;58.20;;;;;;5048977;28;20245;-61
2022/05/24 00:59:33;;;;;;;2.25;1.00;;;15.50;58.20;;;;;;5048809;28;20200;-61
2022/05/24 01:02:04;;;;;;;1.55;1.00;;;15.50;58.00;;;;;;5048243;28;20566;-61
2022/05/24 01:04:35;;;;;;;2.05;0.85;;;15.60;58.60;;;;;;5048384;28;20277;-61
2022/05/24 01:07:06;;;;;;;2.25;0.95;;;15.60;58.00;;;;;;5048077;28;20310;-61
2022/05/24 01:09:43;;;;;;;1.48;0.95;;;15.70;57.90;;;;;;5047872;28;20242;-61
2022/05/24 01:12:17;;;;;;;1.20;0.90;;;15.70;57.90;;;;;;5048553;28;20230;-59
2022/05/24 01:14:50;;;;;;;2.50;1.10;;;15.70;57.80;;;;;;5046398;28;20222;-60
2022/05/24 01:17:21;;;;;;;1.23;0.90;;;15.80;57.80;;;;;;5048045;28;20860;-60
2022/05/24 01:19:52;;;;;;;0.82;0.70;;;15.80;57.80;;;;;;5047689;28;20192;-60
2022/05/24 01:22:47;;;;;;;2.08;0.95;;;15.80;57.70;;;;;;5047705;28;20195;-60
2022/05/24 01:25:26;;;;;;;1.60;0.88;;;15.90;57.70;;;;;;5048595;28;20207;-61
2022/05/24 01:27:59;;;;;;;1.25;1.08;;;16.00;57.70;;;;;;5048380;28;20247;-61
2022/05/24 01:30:30;;;;;;;0.93;0.80;;;16.00;57.60;;;;;;5047962;28;20195;-60
2022/05/24 01:38:35;;;;;;;0.93;0.68;;;16.10;57.40;;;;;;5047965;28;20214;-60
2022/05/24 01:41:06;;;;;;;1.75;1.00;;;16.20;57.40;;;;;;5047887;28;20652;-60
2022/05/24 01:43:40;;;;;;;1.02;0.80;;;16.20;57.40;;;;;;5047548;28;20215;-61
2022/05/24 01:46:14;;;;;;;1.80;1.00;;;16.30;57.40;;;;;;5047992;28;20195;-60
2022/05/24 01:48:48;;;;;;;1.35;1.20;;;16.30;57.30;;;;;;5047626;28;20226;-60
2022/05/24 01:51:21;;;;;;;1.92;1.05;;;16.40;57.30;;;;;;5047537;28;20194;-61
2022/05/24 01:53:58;;;;;;;2.47;1.52;;;16.40;57.20;;;;;;5044566;28;20214;-61
2022/05/24 01:56:34;;;;;;;2.40;1.75;;;16.50;57.20;;;;;;5048353;28;20264;-60
2022/05/24 01:59:07;;;;;;;4.03;2.08;;;16.50;57.10;;;;;;5048369;28;20754;-60
2022/05/24 02:01:47;;;;;;;3.40;2.35;;;16.60;57.10;;;;;;5047729;28;20257;-59
2022/05/24 02:04:18;;;;;;;4.00;3.30;;;16.60;57.10;;;;;;5047307;28;20269;-59
2022/05/24 02:07:02;;;;;;;4.63;4.00;;;16.60;57.00;;;;;;5047353;28;20273;-59
2022/05/24 02:09:34;;;;;;;5.65;4.10;;;16.70;57.00;;;;;;5047734;28;20191;-60
2022/05/24 02:12:09;;;;;;;5.55;4.70;;;16.70;56.90;;;;;;5048124;28;20199;-59
2022/05/24 02:14:44;;;;;;;5.40;4.55;;;16.80;56.90;;;;;;5044773;28;20261;-59
2022/05/24 02:17:21;;;;;;;6.30;4.88;;;16.90;56.90;;;;;;5048058;28;20219;-60
2022/05/24 02:19:55;;;;;;;5.88;4.80;;;16.90;56.90;;;;;;5048588;28;20589;-59
2022/05/24 02:22:27;;;;;;;5.38;4.70;;;17.00;56.80;;;;;;5047134;28;20194;-59
2022/05/24 02:25:00;;;;;;;7.18;5.20;;;17.00;56.80;;;;;;5019617;28;20228;-59
2022/05/24 02:27:31;;;;;;;6.13;5.40;;;17.00;56.80;;;;;;5011136;28;20693;-60
2022/05/24 02:30:04;;;;;;;7.22;5.18;;;17.10;56.80;;;;;;5011257;28;20201;-59
2022/05/24 02:32:35;;;;;;;6.30;5.40;;;17.10;56.60;;;;;;5011076;28;20740;-59
2022/05/24 02:35:06;;;;;;;5.13;4.63;;;17.20;56.60;;;;;;5011367;28;20577;-59
2022/05/24 02:37:36;;;;;;;5.85;5.25;;;17.30;56.60;;;;;;5011085;28;20653;-59
2022/05/24 02:42:55;;;;;;;5.70;4.95;;;17.30;56.50;;;;;;5030921;28;20707;-60
2022/05/24 02:45:28;;;;;;;5.75;4.60;;;17.40;56.50;;;;;;5030774;28;20860;-60
2022/05/24 02:47:59;;;;;;;6.38;5.05;;;17.40;56.50;;;;;;5030636;28;20290;-60
2022/05/24 02:50:30;;;;;;;5.00;4.50;;;17.40;56.40;;;;;;5031032;28;20193;-60
2022/05/24 02:53:01;;;;;;;5.10;4.60;;;17.50;56.40;;;;;;5030736;28;20212;-60
2022/05/24 02:55:32;;;;;;;6.45;5.13;;;17.50;56.30;;;;;;5031627;28;20211;-59
2022/05/24 02:58:03;;;;;;;7.07;5.32;;;17.60;56.30;;;;;;5034713;28;20214;-59
2022/05/24 03:00:35;;;;;;;5.60;5.00;;;17.60;56.30;;;;;;5034467;28;20192;-58
2022/05/24 03:03:07;;;;;;;5.68;4.63;;;17.60;56.20;;;;;;5033725;28;20234;-58
2022/05/24 03:05:37;;;;;;;5.47;4.70;;;17.70;56.20;;;;;;5034083;28;20607;-59
2022/05/24 03:10:55;;;;;;;5.75;5.03;;;17.80;56.10;;;;;;5033661;28;20235;-59
2022/05/24 03:16:19;;;;;;;6.30;5.32;;;17.90;55.90;;;;;;5034046;28;20551;-60
2022/05/24 03:18:49;;;;;;;5.90;4.80;;;17.90;55.90;;;;;;5033749;28;21123;-59
2022/05/24 03:21:20;;;;;;;6.20;5.07;;;17.90;55.90;;;;;;5033780;28;20200;-59
2022/05/24 03:23:53;;;;;;;6.13;4.82;;;18.00;55.90;;;;;;5033663;28;20251;-59
2022/05/24 03:26:23;;;;;;;7.28;5.07;;;18.00;55.80;;;;;;5033047;28;20253;-60
2022/05/24 03:28:54;;;;;;;4.57;4.10;;;18.00;56.50;;;;;;5033259;28;20289;-60
2022/05/24 03:31:26;;;;;;;5.40;4.60;;;18.00;55.90;;;;;;5033181;28;20200;-60
2022/05/24 03:33:57;;;;;;;7.13;5.20;;;18.10;55.90;;;;;;5032846;28;20292;-58
2022/05/24 03:36:27;;;;;;;8.00;4.30;;;18.10;55.90;;;;;;5033096;28;20231;-59
2022/05/24 03:38:58;;;;;;;8.00;5.22;;;18.10;55.90;;;;;;5033031;28;20270;-58
2022/05/24 03:41:29;;;;;;;5.28;4.15;;;18.20;55.90;;;;;;5033016;28;20602;-58
2022/05/24 03:43:59;;;;;;;5.03;4.43;;;18.20;56.00;;;;;;5033220;28;20220;-58
2022/05/24 03:46:32;;;;;;;6.50;5.07;;;18.20;55.90;;;;;;5033176;28;20635;-58
2022/05/24 03:49:02;;;;;;;8.13;4.85;;;18.30;56.00;;;;;;5033289;28;20259;-59
2022/05/24 03:51:33;;;;;;;8.40;5.20;;;18.30;56.00;;;;;;5033584;28;20660;-59
2022/05/24 03:54:03;;;;;;;6.45;5.18;;;18.40;56.00;;;;;;5033100;28;20651;-60
2022/05/24 03:56:34;;;;;;;6.18;4.95;;;18.40;55.90;;;;;;5023675;28;20204;-60
2022/05/24 03:59:05;;;;;;;6.00;4.47;;;18.40;55.90;;;;;;5013275;28;20529;-60
2022/05/24 04:01:37;;;;;;;6.78;4.82;;;18.40;56.00;;;;;;5018916;28;20243;-59
2022/05/24 04:04:08;;;;;;;6.25;4.50;;;18.50;56.00;;;;;;5031599;28;20228;-59
2022/05/24 04:06:38;;;;;;;7.60;4.43;;;18.50;56.10;;;;;;5032862;28;20227;-58
2022/05/24 04:09:09;;;;;;;4.97;3.42;;;18.50;56.70;;;;;;5032118;28;20239;-58
2022/05/24 04:11:39;;;;;;;3.80;3.10;;;18.60;56.30;;;;;;5036571;28;20656;-59
2022/05/24 04:14:10;;;;;;;3.95;2.65;;;18.60;56.50;;;;;;5049051;28;20665;-60
2022/05/24 04:16:42;;;;;;;4.10;2.90;;;18.60;56.60;;;;;;5046246;28;20265;-60
2022/05/24 04:19:13;;;;;;;4.32;3.10;;;18.70;56.60;;;;;;5049481;28;20195;-60
2022/05/24 04:21:43;;;;;;;4.40;3.17;;;18.70;56.50;;;;;;5049343;28;20232;-58
2022/05/24 04:24:14;;;;;;;5.57;3.28;;;18.70;56.40;;;;;;5049333;28;20224;-59
2022/05/24 04:26:44;;;;;;;4.10;2.88;;;18.70;56.20;;;;;;5049477;28;20199;-59
2022/05/24 04:29:15;;;;;;;3.15;2.70;;;18.80;56.10;;;;;;5049795;28;20259;-59
2022/05/24 04:31:47;;;;;;;3.33;2.45;;;18.80;56.10;;;;;;5051541;28;20191;-58
2022/05/24 04:34:18;;;;;;;4.00;2.65;;;18.80;55.90;;;;;;5050892;28;20617;-58
2022/05/24 04:36:51;;;;;;;5.68;2.90;;;18.80;55.90;;;;;;5049503;28;20254;-59
2022/05/24 04:39:22;;;;;;;3.85;2.63;;;18.80;55.90;;;;;;5049168;28;20241;-59
2022/05/24 04:44:39;;;;;;;4.57;3.00;;;18.80;55.80;;;;;;5045045;28;20226;-59
2022/05/24 04:47:13;;;;;;;3.85;2.30;;;18.90;55.90;;;;;;5048223;28;20268;-60
2022/05/24 04:49:46;;;;;;;3.65;2.35;;;18.90;55.90;;;;;;5047255;28;20235;-59
2022/05/24 04:52:17;;;;;;;3.17;2.33;;;18.90;55.90;;;;;;5049716;28;20198;-58
2022/05/24 04:54:48;;;;;;;3.78;2.22;;;18.90;56.00;;;;;;5048306;28;20220;-59
2022/05/24 04:57:19;;;;;;;3.78;2.50;;;18.90;55.80;;;;;;5049674;28;20203;-60
2022/05/24 04:59:50;;;;;;;4.03;2.40;;;18.80;55.60;;;;;;5048906;28;20300;-59
2022/05/24 05:02:23;;;;;;;3.55;2.58;;;18.80;55.50;;;;;;5048211;28;20188;-59
2022/05/24 05:04:54;;;;;;;6.68;3.17;;;18.80;55.30;;;;;;5048014;28;20268;-59
2022/05/24 05:07:25;;;;;;;3.70;2.70;;;18.80;55.20;;;;;;5049191;28;20187;-58
2022/05/24 05:09:56;;;;;;;4.63;3.38;;;18.80;55.30;;;;;;5046116;28;20296;-59
2022/05/24 05:12:26;;;;;;;5.93;3.17;;;18.80;55.30;;;;;;5048566;28;20187;-58
2022/05/24 05:14:57;;;;;;;5.18;4.00;;;18.80;55.30;;;;;;5049102;28;20247;-57
2022/05/24 05:17:29;;;;;;;15.15;9.40;;;18.80;55.00;;;;;;5048000;28;20192;-50
2022/05/24 05:20:01;;;;;;;18.55;12.85;;;18.70;53.60;;;;;;5047046;28;20232;-60
2022/05/24 05:22:31;;;;;;;12.85;9.13;;;18.60;53.40;;;;;;5047869;28;20271;-60
2022/05/24 05:25:02;;;;;;;15.25;9.77;;;18.50;53.60;;;;;;5015268;28;20201;-61
2022/05/24 05:27:32;;;;;;;14.57;9.25;;;18.40;53.80;;;;;;5011966;28;20197;-61
2022/05/24 05:32:52;;;;;;;12.40;8.73;;;18.40;54.10;;;;;;5011969;28;20211;-60
2022/05/24 05:35:22;;;;;;;10.98;8.25;;;18.30;54.10;;;;;;5012198;28;20239;-59
2022/05/24 05:37:53;;;;;;;12.52;8.40;;;18.30;54.30;;;;;;5011801;28;20200;-59
2022/05/24 05:40:24;;;;;;;10.90;8.48;;;18.30;54.30;;;;;;5025994;28;20268;-60
2022/05/24 05:42:55;;;;;;;10.85;7.93;;;18.30;54.40;;;;;;5031516;28;20219;-59
2022/05/24 05:45:26;;;;;;;10.55;7.45;;;18.30;54.50;;;;;;5031321;28;20258;-59
2022/05/24 05:47:58;;;;;;;11.20;7.82;;;18.30;54.60;;;;;;5031328;28;20274;-59
2022/05/24 05:50:28;;;;;;;9.75;7.65;;;18.20;54.60;;;;;;5031343;28;20234;-60
2022/05/24 05:53:03;;;;;;;11.02;7.97;;;18.20;54.60;;;;;;5030465;28;20240;-60
2022/05/24 05:55:34;;;;;;;10.32;8.52;;;18.20;54.70;;;;;;5026024;28;20200;-59
2022/05/24 05:58:04;;;;;;;8.65;6.85;;;18.10;54.70;;;;;;5029982;28;20211;-60
2022/05/24 06:00:35;;;;;;;10.32;7.50;;;18.10;54.80;;;;;;5030223;28;20204;-59
2022/05/24 06:03:07;;;;;;;12.43;8.20;;;18.10;54.90;;;;;;5031511;28;20309;-59
2022/05/24 06:05:38;;;;;;;9.40;7.70;;;18.10;55.50;;;;;;5044277;28;20198;-59
2022/05/24 06:08:10;;;;;;;10.10;7.68;;;18.00;54.90;;;;;;5046492;28;20188;-59
2022/05/24 06:10:41;;;;;;;10.80;7.45;;;18.00;55.00;;;;;;5045992;28;20223;-60
2022/05/24 06:13:11;;;;;;;9.98;7.43;;;18.00;55.00;;;;;;5046884;28;20223;-59
2022/05/24 06:15:42;;;;;;;9.15;7.30;;;18.00;55.10;;;;;;5045541;28;20199;-59
2022/05/24 06:18:14;;;;;;;12.00;7.65;;;18.00;55.10;;;;;;5045529;28;20301;-59
2022/05/24 06:20:45;;;;;;;8.07;6.30;;;18.00;55.10;;;;;;5046912;28;20195;-59
2022/05/24 06:23:16;;;;;;;10.07;7.25;;;17.90;55.50;;;;;;5045723;28;20340;-60
2022/05/24 06:25:48;;;;;;;9.60;7.40;;;17.90;55.10;;;;;;5047605;28;20187;-60
2022/05/24 06:28:22;;;;;;;8.13;6.78;;;17.90;55.30;;;;;;5045925;28;20196;-59
2022/05/24 06:30:53;;;;;;;8.30;6.75;;;17.90;55.30;;;;;;5048046;28;20713;-60
2022/05/24 06:33:25;;;;;;;7.40;6.55;;;17.90;55.30;;;;;;5048666;28;20230;-60
2022/05/24 06:35:56;;;;;;;8.25;6.75;;;17.80;55.30;;;;;;5048001;28;20231;-60
2022/05/24 06:38:26;;;;;;;8.95;7.35;;;17.80;55.30;;;;;;5050840;28;20289;-61
2022/05/24 06:40:57;;;;;;;8.63;6.85;;;17.80;55.40;;;;;;5048826;28;20195;-60
2022/05/24 06:43:27;;;;;;;8.02;6.82;;;17.80;55.40;;;;;;5047867;28;20220;-61
2022/05/24 06:45:58;;;;;;;7.97;5.97;;;17.80;55.50;;;;;;5046835;28;20200;-60
2022/05/24 06:48:31;;;;;;;8.35;6.55;;;17.70;55.50;;;;;;5047989;28;20292;-59
2022/05/24 06:51:02;;;;;;;7.93;6.07;;;17.70;55.50;;;;;;5049261;28;20653;-59
2022/05/24 06:53:32;;;;;;;53.25;39.00;;;17.60;55.50;;;;;;5047810;28;20211;-60
2022/05/24 06:56:03;;;;;;;51.30;34.65;;;17.60;55.90;;;;;;5049810;28;20659;-60
2022/05/24 06:58:33;;;;;;;24.35;19.42;;;17.60;56.40;;;;;;5047874;28;20188;-60
2022/05/24 07:03:52;;;;;;;26.77;20.20;;;17.60;56.30;;;;;;5049565;28;20320;-60
2022/05/24 07:06:23;;;;;;;24.10;19.58;;;17.60;56.30;;;;;;5050509;28;20245;-59
2022/05/24 07:08:54;;;;;;;23.63;18.90;;;17.50;56.20;;;;;;5049638;28;20281;-60
2022/05/24 07:11:25;;;;;;;24.23;18.75;;;17.60;56.30;;;;;;5050298;28;20269;-60
2022/05/24 07:13:56;;;;;;;22.00;17.30;;;17.50;56.20;;;;;;5045084;28;20219;-60
2022/05/24 07:16:26;;;;;;;20.95;17.65;;;17.50;56.30;;;;;;5049494;28;20660;-61
2022/05/24 07:18:59;;;;;;;20.08;17.50;;;17.50;56.20;;;;;;5047530;28;20721;-61
2022/05/24 07:21:30;;;;;;;23.40;17.13;;;17.50;56.20;;;;;;5049881;28;20238;-60
2022/05/24 07:24:01;;;;;;;21.77;16.30;;;17.40;56.20;;;;;;5048668;28;20211;-60
2022/05/24 07:26:31;;;;;;;23.73;16.83;;;17.40;56.40;;;;;;5039719;28;20196;-59
2022/05/24 07:29:02;;;;;;;18.10;15.70;;;17.40;56.20;;;;;;5032827;28;20251;-59
2022/05/24 07:31:32;;;;;;;19.08;15.15;;;17.40;56.30;;;;;;5033121;28;20595;-60
2022/05/24 07:34:05;;;;;;;17.77;14.88;;;17.40;56.30;;;;;;5032756;28;20224;-59
2022/05/24 07:36:35;;;;;;;20.20;14.75;;;17.30;56.30;;;;;;5032806;28;20196;-60
2022/05/24 07:39:06;;;;;;;16.15;14.48;;;17.30;56.30;;;;;;5026196;28;20197;-59
2022/05/24 07:47:11;;;;;;;18.20;13.40;;;17.30;56.30;;;;;;5016057;28;20331;-59
2022/05/24 07:49:44;;;;;;;17.33;14.23;;;17.30;56.30;;;;;;5012853;28;20235;-60
2022/05/24 07:52:14;;;;;;;15.32;13.68;;;17.20;56.30;;;;;;5013115;28;20727;-60
2022/05/24 07:54:45;;;;;;;15.35;12.63;;;17.20;56.30;;;;;;5012947;28;20228;-59
2022/05/24 07:57:15;;;;;;;16.35;13.55;;;17.20;56.30;;;;;;5017002;28;20259;-59
2022/05/24 07:59:47;;;;;;;19.75;14.35;;;17.20;56.60;;;;;;5013027;28;20204;-59
2022/05/24 08:02:19;;;;;;;15.38;11.98;;;17.20;56.60;;;;;;5013144;28;20548;-59
2022/05/24 08:04:55;;;;;;;16.95;12.48;;;17.20;56.50;;;;;;5012618;28;20271;-60
2022/05/24 08:07:25;;;;;;;13.70;11.43;;;17.10;56.40;;;;;;5013014;28;20653;-60
2022/05/24 08:09:56;;;;;;;13.27;11.80;;;17.10;56.50;;;;;;5023577;28;20220;-59
2022/05/24 08:12:26;;;;;;;13.45;12.05;;;17.10;56.50;;;;;;5032519;28;20192;-59
2022/05/24 08:14:58;;;;;;;14.00;11.50;;;17.10;56.50;;;;;;5032796;28;20220;-59
2022/05/24 08:17:28;;;;;;;14.90;12.23;;;17.10;56.50;;;;;;5033068;28;20204;-59
2022/05/24 08:20:01;;;;;;;13.80;11.43;;;17.10;56.60;;;;;;5032799;28;20189;-59
2022/05/24 08:22:31;;;;;;;12.40;11.13;;;17.00;56.50;;;;;;5032543;28;20714;-59
2022/05/24 08:25:02;;;;;;;13.73;10.90;;;17.00;56.50;;;;;;5032593;28;20200;-59
2022/05/24 08:27:32;;;;;;;13.82;11.02;;;17.00;56.60;;;;;;5032237;28;20729;-61
2022/05/24 08:30:03;;;;;;;12.32;10.95;;;17.00;56.60;;;;;;5032903;28;20255;-59
2022/05/24 08:32:33;;;;;;;13.30;10.50;;;17.00;56.60;;;;;;5032375;28;20274;-59
2022/05/24 08:35:06;;;;;;;13.45;10.48;;;17.00;56.60;;;;;;5032251;28;20204;-59
2022/05/24 08:37:37;;;;;;;13.40;10.23;;;16.90;56.60;;;;;;5032458;28;20193;-60
2022/05/24 08:40:08;;;;;;;13.45;10.18;;;16.90;56.60;;;;;;5032276;28;20188;-60
2022/05/24 08:42:53;;;;;;;11.70;10.00;;;16.90;56.60;;;;;;5031746;28;20260;-59
2022/05/24 08:48:27;;;;;;;12.65;9.75;;;16.90;56.60;;;;;;4975836;28;20201;-58
2022/05/24 08:51:03;;;;;;;11.55;9.35;;;16.90;56.60;;;;;;5031880;28;20695;-59
2022/05/24 08:53:39;;;;;;;10.68;8.88;;;16.90;56.60;;;;;;5031335;28;20215;-59
2022/05/24 08:56:13;;;;;;;11.20;9.32;;;16.80;56.60;;;;;;5032326;28;20196;-60
2022/05/24 08:58:50;;;;;;;12.27;8.90;;;16.80;56.60;;;;;;5031384;28;20228;-60
2022/05/24 09:01:24;;;;;;;9.75;8.48;;;16.80;56.60;;;;;;5031618;28;20207;-59
2022/05/24 09:03:55;;;;;;;12.13;8.95;;;16.80;56.70;;;;;;5031696;28;20219;-58
2022/05/24 09:06:40;;;;;;;12.32;8.85;;;16.80;56.70;;;;;;5031945;28;20318;-59
2022/05/24 09:09:29;;;;;;;11.98;8.48;;;16.80;56.70;;;;;;5031472;28;20200;-59
2022/05/24 09:12:12;;;;;;;10.60;7.20;;;16.70;56.90;;;;;;5030785;28;20204;-59
2022/05/24 09:14:51;;;;;;;8.10;6.57;;;16.70;57.10;;;;;;5031698;28;20220;-59
2022/05/24 09:17:38;;;;;;;9.75;7.13;;;16.70;57.40;;;;;;5026794;28;20200;-59
2022/05/24 09:20:15;;;;;;;9.15;7.40;;;16.80;57.50;;;;;;5046097;28;20256;-60
2022/05/24 09:22:48;;;;;;;8.60;7.43;;;16.70;57.40;;;;;;5048687;28;20187;-59
2022/05/24 09:25:18;;;;;;;10.38;7.45;;;16.70;57.30;;;;;;5048512;28;20195;-60
2022/05/24 09:27:54;;;;;;;11.07;7.50;;;16.80;57.30;;;;;;5045884;28;20195;-59
2022/05/24 09:30:38;;;;;;;9.45;7.10;;;16.70;57.20;;;;;;5048566;28;20253;-59
2022/05/24 09:33:27;;;;;;;8.70;7.20;;;16.70;57.20;;;;;;5047842;28;20215;-59
2022/05/24 09:36:00;;;;;;;10.68;7.30;;;16.70;57.20;;;;;;5047209;28;20188;-59
2022/05/24 09:38:38;;;;;;;9.70;7.18;;;16.70;57.20;;;;;;5047273;28;20261;-60
2022/05/24 09:41:18;;;;;;;8.52;6.35;;;16.70;57.20;;;;;;5047577;28;20191;-60
2022/05/24 09:44:02;;;;;;;8.48;6.45;;;16.70;57.20;;;;;;5045772;28;20216;-60
2022/05/24 09:46:33;;;;;;;7.80;6.63;;;16.70;57.20;;;;;;5048432;28;20195;-60
2022/05/24 09:49:07;;;;;;;9.15;6.38;;;16.70;57.20;;;;;;5048304;28;20748;-60
2022/05/24 09:51:42;;;;;;;8.80;6.15;;;16.60;57.20;;;;;;5048411;28;20227;-60
2022/05/24 09:54:20;;;;;;;7.55;5.53;;;16.60;57.10;;;;;;5047557;28;20269;-60
2022/05/24 09:57:07;;;;;;;8.10;5.78;;;16.60;57.20;;;;;;5049098;28;20203;-61
2022/05/24 09:59:40;;;;;;;7.85;5.93;;;16.60;57.20;;;;;;5047422;28;20261;-60
2022/05/24 10:02:26;;;;;;;6.40;5.15;;;16.60;57.20;;;;;;5048049;28;20195;-59
2022/05/24 10:04:56;;;;;;;6.32;5.28;;;16.60;57.10;;;;;;5050181;28;20265;-59
2022/05/24 10:07:29;;;;;;;7.93;5.75;;;16.60;57.10;;;;;;5051372;28;20195;-60
2022/05/24 10:10:12;;;;;;;6.60;5.28;;;16.60;57.10;;;;;;5051271;28;20258;-60
2022/05/24 10:12:58;;;;;;;5.75;4.80;;;16.60;57.10;;;;;;5049769;28;20192;-60
2022/05/24 10:15:39;;;;;;;7.03;5.18;;;16.50;57.00;;;;;;5052238;28;20187;-60
2022/05/24 10:18:41;;;;;;;6.07;5.13;;;16.50;57.00;;;;;;5050938;28;20207;-60
2022/05/24 10:21:21;;;;;;;6.38;5.05;;;16.50;57.10;;;;;;5046990;28;20673;-60
2022/05/24 10:23:57;;;;;;;6.22;5.05;;;16.50;57.00;;;;;;5051047;28;20246;-60
2022/05/24 10:26:42;;;;;;;6.45;4.93;;;16.50;57.00;;;;;;5049865;28;20249;-61
2022/05/24 10:29:20;;;;;;;5.85;4.97;;;16.50;57.10;;;;;;5051024;28;20191;-61
2022/05/24 10:31:55;;;;;;;6.53;4.95;;;16.50;57.10;;;;;;5051812;28;20219;-59
2022/05/24 10:40:30;;;;;;;5.72;3.97;;;16.50;57.10;;;;;;5051232;28;20245;-59
2022/05/24 10:43:18;;;;;;;6.03;4.50;;;16.50;57.10;;;;;;5051508;28;20276;-60
2022/05/24 10:45:52;;;;;;;6.53;4.32;;;16.50;57.10;;;;;;5050733;28;20245;-61
2022/05/24 10:48:33;;;;;;;5.03;3.78;;;16.40;57.10;;;;;;5052033;28;20555;-60
2022/05/24 10:51:11;;;;;;;6.20;4.20;;;16.40;57.10;;;;;;5051120;28;20698;-61
2022/05/24 10:53:47;;;;;;;5.97;4.60;;;16.40;57.10;;;;;;5051143;28;20216;-61
2022/05/24 10:56:34;;;;;;;5.13;4.20;;;16.40;57.10;;;;;;5051008;28;20218;-59
2022/05/24 10:59:14;;;;;;;5.32;3.83;;;16.40;57.10;;;;;;5051168;28;20227;-60
2022/05/24 11:01:52;;;;;;;6.55;4.20;;;16.40;57.10;;;;;;5050564;28;20199;-60
2022/05/24 11:04:27;;;;;;;4.65;3.90;;;16.40;57.10;;;;;;5047306;28;20314;-60
2022/05/24 11:07:06;;;;;;;4.32;3.75;;;16.40;57.00;;;;;;5048850;28;20199;-60
2022/05/24 11:09:48;;;;;;;5.70;3.78;;;16.40;57.00;;;;;;5050760;28;20644;-59
2022/05/24 11:12:26;;;;;;;5.28;3.90;;;16.40;57.00;;;;;;5050180;28;20193;-60
2022/05/24 11:15:08;;;;;;;4.63;3.53;;;16.40;57.10;;;;;;5050575;28;20207;-61
2022/05/24 11:17:38;;;;;;;5.03;3.78;;;16.40;57.10;;;;;;5049662;28;20192;-61
2022/05/24 11:20:10;;;;;;;4.72;3.70;;;16.40;57.10;;;;;;5050843;28;20979;-61
2022/05/24 11:22:43;;;;;;;5.18;3.60;;;16.30;57.00;;;;;;5049620;28;20284;-60
2022/05/24 11:25:19;;;;;;;4.78;3.92;;;16.30;57.10;;;;;;5049759;28;20223;-60
2022/05/24 11:27:53;;;;;;;4.97;3.58;;;16.30;57.00;;;;;;5049655;28;20226;-60
2022/05/24 11:30:39;;;;;;;5.78;3.58;;;16.30;57.10;;;;;;5044587;28;20251;-60
2022/05/24 11:33:13;;;;;;;3.72;3.08;;;16.30;57.10;;;;;;5049529;28;20285;-60
2022/05/24 11:35:45;;;;;;;5.18;3.60;;;16.30;57.60;;;;;;5050146;28;20241;-60
2022/05/24 11:38:19;;;;;;;5.25;3.25;;;16.30;57.10;;;;;;5048077;28;20632;-61
2022/05/24 11:41:19;;;;;;;4.68;3.60;;;16.30;57.10;;;;;;5049285;28;20227;-60
2022/05/24 11:44:09;;;;;;;4.13;3.10;;;16.30;57.10;;;;;;5050954;28;20243;-60
2022/05/24 11:46:49;;;;;;;4.80;3.15;;;16.30;57.10;;;;;;5050294;28;20223;-60
2022/05/24 11:49:51;;;;;;;3.40;3.10;;;16.30;57.10;;;;;;5050932;28;20218;-61
2022/05/24 11:52:43;;;;;;;4.97;3.30;;;16.30;57.10;;;;;;5047846;28;20223;-61
2022/05/24 11:55:28;;;;;;;3.83;3.00;;;16.30;57.10;;;;;;5050632;28;20203;-60
2022/05/24 11:58:08;;;;;;;3.80;3.22;;;16.30;57.10;;;;;;5049861;28;20613;-59
2022/05/24 12:00:58;;;;;;;4.97;3.25;;;16.30;57.10;;;;;;5049505;28;20199;-59
2022/05/24 12:09:18;;;;;;;3.40;3.00;;;16.30;57.10;;;;;;5032610;28;20251;-61
2022/05/24 12:11:50;;;;;;;4.15;2.88;;;16.30;57.10;;;;;;5030976;28;20294;-60
2022/05/24 12:14:37;;;;;;;3.15;2.50;;;16.30;57.10;;;;;;5031316;28;20216;-59
2022/05/24 12:17:16;;;;;;;3.92;2.80;;;16.20;57.70;;;;;;5031181;28;20192;-60
2022/05/24 12:19:56;;;;;;;3.05;2.67;;;16.30;57.10;;;;;;5030930;28;20199;-59
2022/05/24 12:22:31;;;;;;;3.72;2.80;;;16.20;57.00;;;;;;5031271;28;20563;-60
2022/05/24 12:25:03;;;;;;;3.05;2.40;;;16.20;57.00;;;;;;5031163;28;20678;-60
2022/05/24 12:27:52;;;;;;;4.07;2.78;;;16.20;57.10;;;;;;5031159;28;20543;-60
2022/05/24 12:30:45;;;;;;;3.30;2.60;;;16.20;57.00;;;;;;5031318;28;20610;-61
2022/05/24 12:33:21;;;;;;;3.58;2.70;;;16.20;57.00;;;;;;5027692;28;20212;-61
2022/05/24 12:35:57;;;;;;;2.95;2.45;;;16.20;56.90;;;;;;5031004;28;20204;-60
2022/05/24 12:38:32;;;;;;;3.47;2.40;;;16.20;57.00;;;;;;5031170;28;20200;-61
2022/05/24 12:41:21;;;;;;;4.40;2.80;;;16.20;57.00;;;;;;5031652;28;20232;-61
2022/05/24 12:43:59;;;;;;;2.50;2.30;;;16.20;57.00;;;;;;5031045;28;20262;-61
2022/05/24 12:46:33;;;;;;;2.28;2.08;;;16.20;57.00;;;;;;5031431;28;20226;-61
2022/05/24 12:49:09;;;;;;;3.35;2.70;;;16.20;57.00;;;;;;5030333;28;20188;-60
2022/05/24 12:51:42;;;;;;;2.80;2.10;;;16.20;57.00;;;;;;5030694;28;20227;-60
2022/05/24 12:54:14;;;;;;;2.92;2.42;;;16.20;57.00;;;;;;5030328;28;20216;-60
2022/05/24 12:57:00;;;;;;;3.08;2.40;;;16.20;57.00;;;;;;5030918;28;20196;-60
2022/05/24 12:59:37;;;;;;;2.72;2.40;;;16.20;57.00;;;;;;5030591;28;20335;-62
2022/05/24 13:02:32;;;;;;;2.80;2.20;;;16.10;56.90;;;;;;5030694;28;20195;-60
2022/05/24 13:05:13;;;;;;;2.60;2.17;;;16.10;56.90;;;;;;5030428;28;20416;-59
2022/05/24 13:07:48;;;;;;;3.53;2.25;;;16.10;56.80;;;;;;5030601;28;20200;-59
2022/05/24 13:10:27;;;;;;;3.63;2.20;;;16.10;56.90;;;;;;5030495;28;20257;-59
2022/05/24 13:13:00;;;;;;;2.58;2.15;;;16.10;56.90;;;;;;5029857;28;20215;-59
2022/05/24 13:15:35;;;;;;;3.38;2.40;;;16.10;56.90;;;;;;5029953;28;20200;-59
2022/05/24 13:18:12;;;;;;;2.38;2.00;;;16.10;56.90;;;;;;5030207;28;20227;-59
2022/05/24 13:20:44;;;;;;;2.20;2.00;;;16.10;56.90;;;;;;5029817;28;20192;-59
2022/05/24 13:23:28;;;;;;;3.42;2.10;;;16.10;56.90;;;;;;5029725;28;20274;-59
2022/05/24 13:26:00;;;;;;;2.67;2.00;;;16.10;56.90;;;;;;5030060;28;20200;-59
2022/05/24 13:28:42;;;;;;;2.55;1.90;;;16.10;56.90;;;;;;5030220;28;20197;-60
2022/05/24 13:34:04;;;;;;;2.65;1.98;;;16.10;56.90;;;;;;5029890;28;20223;-61
2022/05/24 13:36:43;;;;;;;2.65;2.03;;;16.10;56.90;;;;;;5030307;28;20208;-61
2022/05/24 13:39:19;;;;;;;2.60;1.92;;;16.10;56.90;;;;;;5029579;28;20219;-61
2022/05/24 13:41:59;;;;;;;2.58;1.90;;;16.10;56.90;;;;;;5029882;28;20196;-61
2022/05/24 13:44:31;;;;;;;2.50;2.03;;;16.10;56.90;;;;;;5029398;28;20215;-61
2022/05/24 13:47:05;;;;;;;2.58;1.90;;;16.00;56.80;;;;;;5026415;28;20250;-61
2022/05/24 13:49:43;;;;;;;1.98;1.65;;;16.10;56.80;;;;;;5029453;28;20200;-61
2022/05/24 13:52:28;;;;;;;2.28;1.73;;;16.00;56.80;;;;;;5029917;28;20258;-61
2022/05/24 13:55:17;;;;;;;2.53;1.80;;;16.00;56.80;;;;;;5029519;28;20216;-61
2022/05/24 13:57:53;;;;;;;2.28;1.95;;;16.00;56.80;;;;;;5030369;28;20636;-61
2022/05/24 14:00:32;;;;;;;2.35;1.70;;;16.00;56.80;;;;;;5029170;28;20188;-61
2022/05/24 14:03:24;;;;;;;2.75;1.95;;;16.00;56.80;;;;;;5029726;28;20223;-61
2022/05/24 14:06:07;;;;;;;2.42;1.75;;;16.00;56.80;;;;;;5029379;28;20192;-61
2022/05/24 14:08:39;;;;;;;2.17;1.90;;;16.00;56.80;;;;;;5029928;28;20246;-61